sensor_id;sensor_type;location;lat;lon;timestamp;temperature;humidity
7648;DHT22;3866;48.020;11.720;2023-07-31T00:01:18;16.60;99.90
7648;DHT22;3866;48.020;11.720;2023-07-31T00:03:45;16.60;99.90
7648;DHT22;3866;48.020;11.720;2023-07-31T00:06:12;16.70;99.90
7648;DHT22;3866;48.020;11.720;2023-07-31T00:08:39;16.90;99.90
7648;DHT22;3866;48.020;11.720;2023-07-31T00:11:07;16.60;99.90
7648;DHT22;3866;48.020;11.720;2023-07-31T00:13:34;16.60;99.90
7648;DHT22;3866;48.020;11.720;2023-07-31T00:16:01;16.70;99.90
7648;DHT22;3866;48.020;11.720;2023-07-31T00:18:28;16.70;99.90
7648;DHT22;3866;48.020;11.720;2023-07-31T00:20:54;16.60;99.90
7648;DHT22;3866;48.020;11.720;2023-07-31T00:23:21;16.60;99.90
7648;DHT22;3866;48.020;11.720;2023-07-31T00:25:48;16.60;99.90
7648;DHT22;3866;48.020;11.720;2023-07-31T00:28:16;16.50;99.90
7648;DHT22;3866;48.020;11.720;2023-07-31T00:30:43;16.40;99.90
7648;DHT22;3866;48.020;11.720;2023-07-31T00:33:10;16.40;99.90
7648;DHT22;3866;48.020;11.720;2023-07-31T00:35:37;16.40;99.90
7648;DHT22;3866;48.020;11.720;2023-07-31T00:38:04;16.30;99.90
7648;DHT22;3866;48.020;11.720;2023-07-31T00:40:34;16.30;99.90
7648;DHT22;3866;48.020;11.720;2023-07-31T00:43:02;16.30;99.90
7648;DHT22;3866;48.020;11.720;2023-07-31T00:45:30;16.30;99.90
7648;DHT22;3866;48.020;11.720;2023-07-31T00:47:58;16.30;99.90
7648;DHT22;3866;48.020;11.720;2023-07-31T00:50:25;16.30;99.90
7648;DHT22;3866;48.020;11.720;2023-07-31T00:52:53;16.30;99.90
7648;DHT22;3866;48.020;11.720;2023-07-31T00:55:20;16.20;99.90
7648;DHT22;3866;48.020;11.720;2023-07-31T00:57:48;16.20;99.90
7648;DHT22;3866;48.020;11.720;2023-07-31T01:00:15;16.10;99.90
7648;DHT22;3866;48.020;11.720;2023-07-31T01:02:44;16.10;99.90
7648;DHT22;3866;48.020;11.720;2023-07-31T01:05:11;16.10;99.90
7648;DHT22;3866;48.020;11.720;2023-07-31T01:07:42;16.10;99.90
7648;DHT22;3866;48.020;11.720;2023-07-31T01:10:16;16.00;99.90
7648;DHT22;3866;48.020;11.720;2023-07-31T01:12:45;16.00;99.90
7648;DHT22;3866;48.020;11.720;2023-07-31T01:15:13;15.90;99.90
7648;DHT22;3866;48.020;11.720;2023-07-31T01:17:41;15.80;99.90
7648;DHT22;3866;48.020;11.720;2023-07-31T01:20:12;15.80;99.90
7648;DHT22;3866;48.020;11.720;2023-07-31T01:23:17;15.70;99.90
7648;DHT22;3866;48.020;11.720;2023-07-31T01:26:12;15.70;99.90
7648;DHT22;3866;48.020;11.720;2023-07-31T01:28:45;15.80;99.90
7648;DHT22;3866;48.020;11.720;2023-07-31T01:31:17;15.80;99.90
7648;DHT22;3866;48.020;11.720;2023-07-31T01:33:45;15.90;99.90
7648;DHT22;3866;48.020;11.720;2023-07-31T01:36:12;16.00;99.90
7648;DHT22;3866;48.020;11.720;2023-07-31T01:38:39;16.00;99.90
7648;DHT22;3866;48.020;11.720;2023-07-31T01:41:08;16.10;99.90
7648;DHT22;3866;48.020;11.720;2023-07-31T01:43:34;16.20;99.90
7648;DHT22;3866;48.020;11.720;2023-07-31T01:46:01;16.00;99.90
7648;DHT22;3866;48.020;11.720;2023-07-31T01:48:28;16.00;99.90
7648;DHT22;3866;48.020;11.720;2023-07-31T01:51:01;16.00;99.90
7648;DHT22;3866;48.020;11.720;2023-07-31T01:53:28;16.00;99.90
7648;DHT22;3866;48.020;11.720;2023-07-31T01:55:55;16.10;99.90
7648;DHT22;3866;48.020;11.720;2023-07-31T01:58:23;16.10;99.90
7648;DHT22;3866;48.020;11.720;2023-07-31T02:00:50;16.20;99.90
7648;DHT22;3866;48.020;11.720;2023-07-31T02:03:17;16.40;99.90
7648;DHT22;3866;48.020;11.720;2023-07-31T02:05:44;16.30;99.90
7648;DHT22;3866;48.020;11.720;2023-07-31T02:08:11;16.40;99.90
7648;DHT22;3866;48.020;11.720;2023-07-31T02:10:38;16.30;99.90
7648;DHT22;3866;48.020;11.720;2023-07-31T02:13:05;16.30;99.90
7648;DHT22;3866;48.020;11.720;2023-07-31T02:15:34;16.10;99.90
7648;DHT22;3866;48.020;11.720;2023-07-31T02:18:01;16.10;99.90
7648;DHT22;3866;48.020;11.720;2023-07-31T02:20:27;16.10;99.90
7648;DHT22;3866;48.020;11.720;2023-07-31T02:22:54;16.20;99.90
7648;DHT22;3866;48.020;11.720;2023-07-31T02:25:21;16.30;99.90
7648;DHT22;3866;48.020;11.720;2023-07-31T02:27:48;16.30;99.90
7648;DHT22;3866;48.020;11.720;2023-07-31T02:30:15;16.30;99.90
7648;DHT22;3866;48.020;11.720;2023-07-31T02:32:43;16.30;99.90
7648;DHT22;3866;48.020;11.720;2023-07-31T02:35:10;16.20;99.90
7648;DHT22;3866;48.020;11.720;2023-07-31T02:37:40;16.10;99.90
7648;DHT22;3866;48.020;11.720;2023-07-31T02:40:08;16.10;99.90
7648;DHT22;3866;48.020;11.720;2023-07-31T02:42:35;16.00;99.90
7648;DHT22;3866;48.020;11.720;2023-07-31T02:45:02;15.90;99.90
7648;DHT22;3866;48.020;11.720;2023-07-31T02:47:29;15.80;99.90
7648;DHT22;3866;48.020;11.720;2023-07-31T02:49:57;15.80;99.90
7648;DHT22;3866;48.020;11.720;2023-07-31T02:52:25;15.80;99.90
7648;DHT22;3866;48.020;11.720;2023-07-31T02:54:51;15.80;99.90
7648;DHT22;3866;48.020;11.720;2023-07-31T02:57:18;15.70;99.90
7648;DHT22;3866;48.020;11.720;2023-07-31T02:59:45;15.80;99.90
7648;DHT22;3866;48.020;11.720;2023-07-31T03:02:12;15.80;99.90
7648;DHT22;3866;48.020;11.720;2023-07-31T03:04:39;15.70;99.90
7648;DHT22;3866;48.020;11.720;2023-07-31T03:07:08;15.80;99.90
7648;DHT22;3866;48.020;11.720;2023-07-31T03:09:34;15.80;99.90
7648;DHT22;3866;48.020;11.720;2023-07-31T03:12:01;16.00;99.90
7648;DHT22;3866;48.020;11.720;2023-07-31T03:14:28;16.00;99.90
7648;DHT22;3866;48.020;11.720;2023-07-31T03:16:55;16.00;99.90
7648;DHT22;3866;48.020;11.720;2023-07-31T03:19:22;16.00;99.90
7648;DHT22;3866;48.020;11.720;2023-07-31T03:21:49;16.00;99.90
7648;DHT22;3866;48.020;11.720;2023-07-31T03:24:17;16.00;99.90
7648;DHT22;3866;48.020;11.720;2023-07-31T03:26:44;16.10;99.90
7648;DHT22;3866;48.020;11.720;2023-07-31T03:29:11;16.00;99.90
7648;DHT22;3866;48.020;11.720;2023-07-31T03:31:38;15.90;99.90
7648;DHT22;3866;48.020;11.720;2023-07-31T03:34:04;15.90;99.90
7648;DHT22;3866;48.020;11.720;2023-07-31T03:36:31;15.90;99.90
7648;DHT22;3866;48.020;11.720;2023-07-31T03:38:58;15.90;99.90
7648;DHT22;3866;48.020;11.720;2023-07-31T03:41:26;16.00;99.90
7648;DHT22;3866;48.020;11.720;2023-07-31T03:43:53;16.00;99.90
7648;DHT22;3866;48.020;11.720;2023-07-31T03:46:21;15.90;99.90
7648;DHT22;3866;48.020;11.720;2023-07-31T03:48:48;15.80;99.90
7648;DHT22;3866;48.020;11.720;2023-07-31T03:51:15;15.80;99.90
7648;DHT22;3866;48.020;11.720;2023-07-31T03:53:42;15.70;99.90
7648;DHT22;3866;48.020;11.720;2023-07-31T03:56:09;15.70;99.90
7648;DHT22;3866;48.020;11.720;2023-07-31T03:58:38;15.80;99.90
7648;DHT22;3866;48.020;11.720;2023-07-31T04:01:04;15.80;99.90
7648;DHT22;3866;48.020;11.720;2023-07-31T04:03:31;15.70;99.90
7648;DHT22;3866;48.020;11.720;2023-07-31T04:05:58;15.60;99.90
7648;DHT22;3866;48.020;11.720;2023-07-31T04:08:25;15.50;99.90
7648;DHT22;3866;48.020;11.720;2023-07-31T04:10:52;15.40;99.90
7648;DHT22;3866;48.020;11.720;2023-07-31T04:13:18;15.40;99.90
7648;DHT22;3866;48.020;11.720;2023-07-31T04:15:49;15.40;99.90
7648;DHT22;3866;48.020;11.720;2023-07-31T04:18:16;15.40;99.90
7648;DHT22;3866;48.020;11.720;2023-07-31T04:20:43;15.40;99.90
7648;DHT22;3866;48.020;11.720;2023-07-31T04:23:10;15.30;99.90
7648;DHT22;3866;48.020;11.720;2023-07-31T04:25:37;15.20;99.90
7648;DHT22;3866;48.020;11.720;2023-07-31T04:28:04;15.20;99.90
7648;DHT22;3866;48.020;11.720;2023-07-31T04:30:31;15.10;99.90
7648;DHT22;3866;48.020;11.720;2023-07-31T04:32:59;15.20;99.90
7648;DHT22;3866;48.020;11.720;2023-07-31T04:35:26;15.20;99.90
7648;DHT22;3866;48.020;11.720;2023-07-31T04:37:52;15.20;99.90
7648;DHT22;3866;48.020;11.720;2023-07-31T04:40:20;15.10;99.90
7648;DHT22;3866;48.020;11.720;2023-07-31T04:42:47;15.20;99.90
7648;DHT22;3866;48.020;11.720;2023-07-31T04:45:14;15.30;99.90
7648;DHT22;3866;48.020;11.720;2023-07-31T04:47:41;15.40;99.90
7648;DHT22;3866;48.020;11.720;2023-07-31T04:50:10;15.60;99.90
7648;DHT22;3866;48.020;11.720;2023-07-31T04:52:36;15.70;99.90
7648;DHT22;3866;48.020;11.720;2023-07-31T04:55:04;15.70;99.90
7648;DHT22;3866;48.020;11.720;2023-07-31T04:57:31;15.70;99.90
7648;DHT22;3866;48.020;11.720;2023-07-31T04:59:57;15.70;99.90
7648;DHT22;3866;48.020;11.720;2023-07-31T05:02:24;15.70;99.90
7648;DHT22;3866;48.020;11.720;2023-07-31T05:04:51;15.70;99.90
7648;DHT22;3866;48.020;11.720;2023-07-31T05:07:19;15.70;99.90
7648;DHT22;3866;48.020;11.720;2023-07-31T05:09:46;15.80;99.90
7648;DHT22;3866;48.020;11.720;2023-07-31T05:12:13;16.00;99.90
7648;DHT22;3866;48.020;11.720;2023-07-31T05:14:40;16.10;99.90
7648;DHT22;3866;48.020;11.720;2023-07-31T05:17:06;16.30;99.90
7648;DHT22;3866;48.020;11.720;2023-07-31T05:19:33;16.30;99.90
7648;DHT22;3866;48.020;11.720;2023-07-31T05:22:00;16.40;99.90
7648;DHT22;3866;48.020;11.720;2023-07-31T05:24:28;16.40;99.90
7648;DHT22;3866;48.020;11.720;2023-07-31T05:26:55;16.60;99.90
7648;DHT22;3866;48.020;11.720;2023-07-31T05:29:22;16.80;99.90
7648;DHT22;3866;48.020;11.720;2023-07-31T05:31:49;16.70;99.90
7648;DHT22;3866;48.020;11.720;2023-07-31T05:34:16;16.60;99.90
7648;DHT22;3866;48.020;11.720;2023-07-31T05:36:42;16.60;99.90
7648;DHT22;3866;48.020;11.720;2023-07-31T05:39:09;16.90;99.90
7648;DHT22;3866;48.020;11.720;2023-07-31T05:41:38;16.80;99.90
7648;DHT22;3866;48.020;11.720;2023-07-31T05:44:04;17.10;99.90
7648;DHT22;3866;48.020;11.720;2023-07-31T05:46:31;17.40;99.90
7648;DHT22;3866;48.020;11.720;2023-07-31T05:48:58;17.50;99.90
7648;DHT22;3866;48.020;11.720;2023-07-31T05:51:26;17.40;99.90
7648;DHT22;3866;48.020;11.720;2023-07-31T05:53:53;17.60;99.90
7648;DHT22;3866;48.020;11.720;2023-07-31T05:56:20;17.60;99.90
7648;DHT22;3866;48.020;11.720;2023-07-31T05:58:48;17.50;99.90
7648;DHT22;3866;48.020;11.720;2023-07-31T06:01:16;17.60;99.90
7648;DHT22;3866;48.020;11.720;2023-07-31T06:03:43;17.70;99.90
7648;DHT22;3866;48.020;11.720;2023-07-31T06:06:10;17.70;99.90
7648;DHT22;3866;48.020;11.720;2023-07-31T06:08:37;17.60;99.90
7648;DHT22;3866;48.020;11.720;2023-07-31T06:11:05;17.70;99.90
7648;DHT22;3866;48.020;11.720;2023-07-31T06:13:32;17.60;99.90
7648;DHT22;3866;48.020;11.720;2023-07-31T06:16:01;17.70;99.90
7648;DHT22;3866;48.020;11.720;2023-07-31T06:18:30;18.00;99.90
7648;DHT22;3866;48.020;11.720;2023-07-31T06:20:57;18.10;99.90
7648;DHT22;3866;48.020;11.720;2023-07-31T06:23:24;18.10;99.90
7648;DHT22;3866;48.020;11.720;2023-07-31T06:25:51;18.00;99.90
7648;DHT22;3866;48.020;11.720;2023-07-31T06:28:18;18.00;99.90
7648;DHT22;3866;48.020;11.720;2023-07-31T06:30:45;18.10;99.90
7648;DHT22;3866;48.020;11.720;2023-07-31T06:33:13;18.10;99.90
7648;DHT22;3866;48.020;11.720;2023-07-31T06:35:40;18.00;99.90
7648;DHT22;3866;48.020;11.720;2023-07-31T06:38:07;18.00;99.90
7648;DHT22;3866;48.020;11.720;2023-07-31T06:40:33;17.90;99.90
7648;DHT22;3866;48.020;11.720;2023-07-31T06:43:00;17.90;99.90
7648;DHT22;3866;48.020;11.720;2023-07-31T06:45:33;17.90;99.90
7648;DHT22;3866;48.020;11.720;2023-07-31T06:48:00;18.00;99.90
7648;DHT22;3866;48.020;11.720;2023-07-31T06:50:29;17.90;99.90
7648;DHT22;3866;48.020;11.720;2023-07-31T06:52:56;18.10;99.90
7648;DHT22;3866;48.020;11.720;2023-07-31T06:55:23;18.10;99.90
7648;DHT22;3866;48.020;11.720;2023-07-31T06:57:52;18.20;99.90
7648;DHT22;3866;48.020;11.720;2023-07-31T07:00:20;18.10;99.90
7648;DHT22;3866;48.020;11.720;2023-07-31T07:02:47;18.20;99.90
7648;DHT22;3866;48.020;11.720;2023-07-31T07:05:16;18.10;99.90
7648;DHT22;3866;48.020;11.720;2023-07-31T07:07:44;18.10;99.90
7648;DHT22;3866;48.020;11.720;2023-07-31T07:10:11;18.10;99.90
7648;DHT22;3866;48.020;11.720;2023-07-31T07:12:38;18.20;99.90
7648;DHT22;3866;48.020;11.720;2023-07-31T07:15:06;18.20;99.90
7648;DHT22;3866;48.020;11.720;2023-07-31T07:17:33;18.10;99.90
7648;DHT22;3866;48.020;11.720;2023-07-31T07:20:00;18.20;99.90
7648;DHT22;3866;48.020;11.720;2023-07-31T07:22:28;18.30;99.90
7648;DHT22;3866;48.020;11.720;2023-07-31T07:24:57;18.30;99.90
7648;DHT22;3866;48.020;11.720;2023-07-31T07:27:24;18.30;99.90
7648;DHT22;3866;48.020;11.720;2023-07-31T07:29:51;18.10;99.90
7648;DHT22;3866;48.020;11.720;2023-07-31T07:32:18;18.10;99.90
7648;DHT22;3866;48.020;11.720;2023-07-31T07:34:47;18.30;99.90
7648;DHT22;3866;48.020;11.720;2023-07-31T07:37:14;18.40;99.90
7648;DHT22;3866;48.020;11.720;2023-07-31T07:39:41;18.50;99.90
7648;DHT22;3866;48.020;11.720;2023-07-31T07:42:10;18.70;99.90
7648;DHT22;3866;48.020;11.720;2023-07-31T07:44:37;18.70;99.90
7648;DHT22;3866;48.020;11.720;2023-07-31T07:47:04;19.30;99.90
7648;DHT22;3866;48.020;11.720;2023-07-31T07:49:31;19.10;99.90
7648;DHT22;3866;48.020;11.720;2023-07-31T07:51:58;19.10;99.90
7648;DHT22;3866;48.020;11.720;2023-07-31T07:54:25;19.10;99.90
7648;DHT22;3866;48.020;11.720;2023-07-31T07:56:52;19.00;99.90
7648;DHT22;3866;48.020;11.720;2023-07-31T07:59:20;19.00;99.90
7648;DHT22;3866;48.020;11.720;2023-07-31T08:01:47;19.00;99.90
7648;DHT22;3866;48.020;11.720;2023-07-31T08:04:14;19.20;99.90
7648;DHT22;3866;48.020;11.720;2023-07-31T08:06:41;19.40;99.90
7648;DHT22;3866;48.020;11.720;2023-07-31T08:09:07;19.60;99.90
7648;DHT22;3866;48.020;11.720;2023-07-31T08:11:34;19.80;99.90
7648;DHT22;3866;48.020;11.720;2023-07-31T08:14:01;19.80;99.90
7648;DHT22;3866;48.020;11.720;2023-07-31T08:16:30;19.60;99.90
7648;DHT22;3866;48.020;11.720;2023-07-31T08:18:56;19.90;99.90
7648;DHT22;3866;48.020;11.720;2023-07-31T08:21:23;20.00;99.90
7648;DHT22;3866;48.020;11.720;2023-07-31T08:23:50;20.40;99.90
7648;DHT22;3866;48.020;11.720;2023-07-31T08:26:17;21.00;99.90
7648;DHT22;3866;48.020;11.720;2023-07-31T08:28:45;21.30;99.90
7648;DHT22;3866;48.020;11.720;2023-07-31T08:31:11;21.10;99.90
7648;DHT22;3866;48.020;11.720;2023-07-31T08:33:40;20.90;99.90
7648;DHT22;3866;48.020;11.720;2023-07-31T08:36:07;20.70;99.90
7648;DHT22;3866;48.020;11.720;2023-07-31T08:38:34;20.80;99.90
7648;DHT22;3866;48.020;11.720;2023-07-31T08:41:03;21.30;99.90
7648;DHT22;3866;48.020;11.720;2023-07-31T08:43:30;21.20;99.90
7648;DHT22;3866;48.020;11.720;2023-07-31T08:45:58;20.90;99.90
7648;DHT22;3866;48.020;11.720;2023-07-31T08:48:25;20.60;99.90
7648;DHT22;3866;48.020;11.720;2023-07-31T08:50:54;20.70;99.90
7648;DHT22;3866;48.020;11.720;2023-07-31T08:53:21;20.60;99.90
7648;DHT22;3866;48.020;11.720;2023-07-31T08:55:48;20.50;99.90
7648;DHT22;3866;48.020;11.720;2023-07-31T08:58:17;20.40;99.90
7648;DHT22;3866;48.020;11.720;2023-07-31T09:00:46;20.20;99.90
7648;DHT22;3866;48.020;11.720;2023-07-31T09:03:14;20.20;99.90
7648;DHT22;3866;48.020;11.720;2023-07-31T09:05:43;20.30;99.90
7648;DHT22;3866;48.020;11.720;2023-07-31T09:08:12;20.20;99.90
7648;DHT22;3866;48.020;11.720;2023-07-31T09:10:43;20.30;99.90
7648;DHT22;3866;48.020;11.720;2023-07-31T09:13:11;20.30;99.90
7648;DHT22;3866;48.020;11.720;2023-07-31T09:15:39;20.40;99.90
7648;DHT22;3866;48.020;11.720;2023-07-31T09:18:07;20.20;99.90
7648;DHT22;3866;48.020;11.720;2023-07-31T09:20:34;20.20;99.90
7648;DHT22;3866;48.020;11.720;2023-07-31T09:23:08;20.20;99.90
7648;DHT22;3866;48.020;11.720;2023-07-31T09:25:38;20.10;99.90
7648;DHT22;3866;48.020;11.720;2023-07-31T09:28:07;20.40;99.90
7648;DHT22;3866;48.020;11.720;2023-07-31T09:30:45;20.50;99.90
7648;DHT22;3866;48.020;11.720;2023-07-31T09:33:12;20.50;99.90
7648;DHT22;3866;48.020;11.720;2023-07-31T09:35:39;20.60;99.90
7648;DHT22;3866;48.020;11.720;2023-07-31T09:38:09;20.80;99.90
7648;DHT22;3866;48.020;11.720;2023-07-31T09:40:39;20.90;99.90
7648;DHT22;3866;48.020;11.720;2023-07-31T09:43:07;21.00;99.90
7648;DHT22;3866;48.020;11.720;2023-07-31T09:45:37;21.20;99.90
7648;DHT22;3866;48.020;11.720;2023-07-31T09:48:07;21.10;99.90
7648;DHT22;3866;48.020;11.720;2023-07-31T09:50:37;21.10;99.90
7648;DHT22;3866;48.020;11.720;2023-07-31T09:53:05;20.70;99.90
7648;DHT22;3866;48.020;11.720;2023-07-31T09:55:32;20.70;99.90
7648;DHT22;3866;48.020;11.720;2023-07-31T09:58:04;20.70;99.90
7648;DHT22;3866;48.020;11.720;2023-07-31T10:00:31;20.90;99.90
7648;DHT22;3866;48.020;11.720;2023-07-31T10:02:59;21.00;99.90
7648;DHT22;3866;48.020;11.720;2023-07-31T10:05:30;21.20;99.90
7648;DHT22;3866;48.020;11.720;2023-07-31T10:07:58;21.30;99.90
7648;DHT22;3866;48.020;11.720;2023-07-31T10:10:25;21.50;99.90
7648;DHT22;3866;48.020;11.720;2023-07-31T10:12:53;21.90;99.90
7648;DHT22;3866;48.020;11.720;2023-07-31T10:15:22;22.30;99.90
7648;DHT22;3866;48.020;11.720;2023-07-31T10:17:49;22.30;99.90
7648;DHT22;3866;48.020;11.720;2023-07-31T10:20:17;21.70;99.90
7648;DHT22;3866;48.020;11.720;2023-07-31T10:22:44;21.20;99.90
7648;DHT22;3866;48.020;11.720;2023-07-31T10:25:12;21.30;99.90
7648;DHT22;3866;48.020;11.720;2023-07-31T10:27:39;21.60;99.90
7648;DHT22;3866;48.020;11.720;2023-07-31T10:30:08;21.90;99.90
7648;DHT22;3866;48.020;11.720;2023-07-31T10:32:38;21.90;99.90
7648;DHT22;3866;48.020;11.720;2023-07-31T10:35:08;21.80;99.90
7648;DHT22;3866;48.020;11.720;2023-07-31T10:37:39;21.80;99.90
7648;DHT22;3866;48.020;11.720;2023-07-31T10:40:10;21.70;99.90
7648;DHT22;3866;48.020;11.720;2023-07-31T10:42:45;21.90;99.90
7648;DHT22;3866;48.020;11.720;2023-07-31T10:45:14;22.00;99.90
7648;DHT22;3866;48.020;11.720;2023-07-31T10:47:45;22.20;99.90
7648;DHT22;3866;48.020;11.720;2023-07-31T10:50:19;22.10;99.90
7648;DHT22;3866;48.020;11.720;2023-07-31T10:52:47;22.30;99.90
7648;DHT22;3866;48.020;11.720;2023-07-31T10:55:26;22.40;99.90
7648;DHT22;3866;48.020;11.720;2023-07-31T10:57:54;22.70;99.90
7648;DHT22;3866;48.020;11.720;2023-07-31T11:00:24;22.50;99.90
7648;DHT22;3866;48.020;11.720;2023-07-31T11:03:00;22.70;99.90
7648;DHT22;3866;48.020;11.720;2023-07-31T11:05:48;22.50;99.90
7648;DHT22;3866;48.020;11.720;2023-07-31T11:08:17;22.40;99.90
7648;DHT22;3866;48.020;11.720;2023-07-31T11:10:45;22.50;99.90
7648;DHT22;3866;48.020;11.720;2023-07-31T11:13:13;22.50;99.90
7648;DHT22;3866;48.020;11.720;2023-07-31T11:15:40;22.50;99.90
7648;DHT22;3866;48.020;11.720;2023-07-31T11:18:08;22.40;99.90
7648;DHT22;3866;48.020;11.720;2023-07-31T11:20:37;22.40;99.90
7648;DHT22;3866;48.020;11.720;2023-07-31T11:23:07;22.70;99.90
7648;DHT22;3866;48.020;11.720;2023-07-31T11:25:35;22.90;99.90
7648;DHT22;3866;48.020;11.720;2023-07-31T11:28:05;22.60;99.90
7648;DHT22;3866;48.020;11.720;2023-07-31T11:30:33;22.40;99.90
7648;DHT22;3866;48.020;11.720;2023-07-31T11:33:01;22.50;99.90
7648;DHT22;3866;48.020;11.720;2023-07-31T11:35:31;22.20;99.90
7648;DHT22;3866;48.020;11.720;2023-07-31T11:37:59;22.40;99.90
7648;DHT22;3866;48.020;11.720;2023-07-31T11:40:26;22.80;99.90
7648;DHT22;3866;48.020;11.720;2023-07-31T11:42:56;23.30;99.90
7648;DHT22;3866;48.020;11.720;2023-07-31T11:45:25;23.20;99.90
7648;DHT22;3866;48.020;11.720;2023-07-31T11:47:54;23.20;99.90
7648;DHT22;3866;48.020;11.720;2023-07-31T11:50:21;23.60;99.90
7648;DHT22;3866;48.020;11.720;2023-07-31T11:52:55;23.40;99.90
7648;DHT22;3866;48.020;11.720;2023-07-31T11:55:24;23.30;99.90
7648;DHT22;3866;48.020;11.720;2023-07-31T11:57:55;23.40;99.90
7648;DHT22;3866;48.020;11.720;2023-07-31T12:00:23;23.80;99.90
7648;DHT22;3866;48.020;11.720;2023-07-31T12:02:50;24.20;99.90
7648;DHT22;3866;48.020;11.720;2023-07-31T12:05:18;23.90;99.90
7648;DHT22;3866;48.020;11.720;2023-07-31T12:07:46;23.90;99.90
7648;DHT22;3866;48.020;11.720;2023-07-31T12:10:24;24.20;99.90
7648;DHT22;3866;48.020;11.720;2023-07-31T12:13:00;25.00;99.90
7648;DHT22;3866;48.020;11.720;2023-07-31T12:15:37;24.90;99.90
7648;DHT22;3866;48.020;11.720;2023-07-31T12:18:06;25.50;99.90
7648;DHT22;3866;48.020;11.720;2023-07-31T12:20:33;26.50;99.90
7648;DHT22;3866;48.020;11.720;2023-07-31T12:23:00;26.50;99.90
7648;DHT22;3866;48.020;11.720;2023-07-31T12:25:34;27.50;99.90
7648;DHT22;3866;48.020;11.720;2023-07-31T12:28:06;27.70;99.90
7648;DHT22;3866;48.020;11.720;2023-07-31T12:30:37;27.50;99.90
7648;DHT22;3866;48.020;11.720;2023-07-31T12:33:05;27.60;99.90
7648;DHT22;3866;48.020;11.720;2023-07-31T12:35:36;28.10;99.90
7648;DHT22;3866;48.020;11.720;2023-07-31T12:38:03;27.10;99.90
7648;DHT22;3866;48.020;11.720;2023-07-31T12:40:30;26.30;99.90
7648;DHT22;3866;48.020;11.720;2023-07-31T12:43:01;25.80;99.90
7648;DHT22;3866;48.020;11.720;2023-07-31T12:45:29;25.50;99.90
7648;DHT22;3866;48.020;11.720;2023-07-31T12:47:56;25.60;99.90
7648;DHT22;3866;48.020;11.720;2023-07-31T12:50:23;25.90;99.90
7648;DHT22;3866;48.020;11.720;2023-07-31T12:52:51;25.80;99.90
7648;DHT22;3866;48.020;11.720;2023-07-31T12:55:18;25.50;99.90
7648;DHT22;3866;48.020;11.720;2023-07-31T12:57:45;25.70;99.90
7648;DHT22;3866;48.020;11.720;2023-07-31T13:00:14;26.60;99.90
7648;DHT22;3866;48.020;11.720;2023-07-31T13:02:41;27.20;99.90
7648;DHT22;3866;48.020;11.720;2023-07-31T13:05:08;27.30;99.90
7648;DHT22;3866;48.020;11.720;2023-07-31T13:07:35;27.40;99.90
7648;DHT22;3866;48.020;11.720;2023-07-31T13:10:02;27.00;99.90
7648;DHT22;3866;48.020;11.720;2023-07-31T13:12:29;25.60;99.90
7648;DHT22;3866;48.020;11.720;2023-07-31T13:14:56;25.10;99.90
7648;DHT22;3866;48.020;11.720;2023-07-31T13:17:24;25.10;99.90
7648;DHT22;3866;48.020;11.720;2023-07-31T13:19:51;25.30;99.90
7648;DHT22;3866;48.020;11.720;2023-07-31T13:22:18;24.80;99.90
7648;DHT22;3866;48.020;11.720;2023-07-31T13:24:45;24.60;99.90
7648;DHT22;3866;48.020;11.720;2023-07-31T13:27:12;25.00;99.90
7648;DHT22;3866;48.020;11.720;2023-07-31T13:29:39;24.60;99.90
7648;DHT22;3866;48.020;11.720;2023-07-31T13:32:06;24.50;99.90
7648;DHT22;3866;48.020;11.720;2023-07-31T13:34:34;24.50;99.90
7648;DHT22;3866;48.020;11.720;2023-07-31T13:37:01;24.40;99.90
7648;DHT22;3866;48.020;11.720;2023-07-31T13:39:28;24.30;99.90
7648;DHT22;3866;48.020;11.720;2023-07-31T13:41:55;24.40;99.90
7648;DHT22;3866;48.020;11.720;2023-07-31T13:44:21;24.40;99.90
7648;DHT22;3866;48.020;11.720;2023-07-31T13:46:48;24.70;99.90
7648;DHT22;3866;48.020;11.720;2023-07-31T13:49:15;24.90;99.90
7648;DHT22;3866;48.020;11.720;2023-07-31T13:51:43;25.00;99.90
7648;DHT22;3866;48.020;11.720;2023-07-31T13:54:10;24.70;99.90
7648;DHT22;3866;48.020;11.720;2023-07-31T13:56:38;24.60;99.90
7648;DHT22;3866;48.020;11.720;2023-07-31T13:59:05;24.90;99.90
7648;DHT22;3866;48.020;11.720;2023-07-31T14:01:32;25.10;99.90
7648;DHT22;3866;48.020;11.720;2023-07-31T14:03:59;25.50;99.90
7648;DHT22;3866;48.020;11.720;2023-07-31T14:06:26;25.80;99.90
7648;DHT22;3866;48.020;11.720;2023-07-31T14:08:54;26.10;99.90
7648;DHT22;3866;48.020;11.720;2023-07-31T14:11:22;26.10;99.90
7648;DHT22;3866;48.020;11.720;2023-07-31T14:13:50;25.80;99.90
7648;DHT22;3866;48.020;11.720;2023-07-31T14:16:17;26.40;99.90
7648;DHT22;3866;48.020;11.720;2023-07-31T14:18:43;26.60;99.90
7648;DHT22;3866;48.020;11.720;2023-07-31T14:21:11;26.30;99.90
7648;DHT22;3866;48.020;11.720;2023-07-31T14:23:38;25.90;99.90
7648;DHT22;3866;48.020;11.720;2023-07-31T14:26:06;25.90;99.90
7648;DHT22;3866;48.020;11.720;2023-07-31T14:28:33;25.80;99.90
7648;DHT22;3866;48.020;11.720;2023-07-31T14:31:00;25.30;99.90
7648;DHT22;3866;48.020;11.720;2023-07-31T14:33:27;25.10;99.90
7648;DHT22;3866;48.020;11.720;2023-07-31T14:35:53;24.80;99.90
7648;DHT22;3866;48.020;11.720;2023-07-31T14:38:20;25.00;99.90
7648;DHT22;3866;48.020;11.720;2023-07-31T14:40:47;25.30;99.90
7648;DHT22;3866;48.020;11.720;2023-07-31T14:43:16;25.50;99.90
7648;DHT22;3866;48.020;11.720;2023-07-31T14:45:43;25.20;99.90
7648;DHT22;3866;48.020;11.720;2023-07-31T14:48:11;24.80;99.90
7648;DHT22;3866;48.020;11.720;2023-07-31T14:50:38;24.90;99.90
7648;DHT22;3866;48.020;11.720;2023-07-31T14:53:05;25.10;99.90
7648;DHT22;3866;48.020;11.720;2023-07-31T14:55:32;25.20;99.90
7648;DHT22;3866;48.020;11.720;2023-07-31T14:57:59;25.10;99.90
7648;DHT22;3866;48.020;11.720;2023-07-31T15:00:27;25.20;99.90
7648;DHT22;3866;48.020;11.720;2023-07-31T15:02:54;25.40;99.90
7648;DHT22;3866;48.020;11.720;2023-07-31T15:05:21;25.50;99.90
7648;DHT22;3866;48.020;11.720;2023-07-31T15:07:48;25.60;99.90
7648;DHT22;3866;48.020;11.720;2023-07-31T15:10:15;25.20;99.90
7648;DHT22;3866;48.020;11.720;2023-07-31T15:12:42;25.10;99.90
7648;DHT22;3866;48.020;11.720;2023-07-31T15:15:09;24.70;99.90
7648;DHT22;3866;48.020;11.720;2023-07-31T15:17:37;24.70;99.90
7648;DHT22;3866;48.020;11.720;2023-07-31T15:20:05;24.50;99.90
7648;DHT22;3866;48.020;11.720;2023-07-31T15:22:32;24.00;99.90
7648;DHT22;3866;48.020;11.720;2023-07-31T15:24:59;23.90;99.90
7648;DHT22;3866;48.020;11.720;2023-07-31T15:27:26;23.90;99.90
7648;DHT22;3866;48.020;11.720;2023-07-31T15:29:53;24.10;99.90
7648;DHT22;3866;48.020;11.720;2023-07-31T15:32:21;24.20;99.90
7648;DHT22;3866;48.020;11.720;2023-07-31T15:34:50;24.40;99.90
7648;DHT22;3866;48.020;11.720;2023-07-31T15:37:17;24.60;99.90
7648;DHT22;3866;48.020;11.720;2023-07-31T15:39:44;24.50;99.90
7648;DHT22;3866;48.020;11.720;2023-07-31T15:42:11;24.10;99.90
7648;DHT22;3866;48.020;11.720;2023-07-31T15:44:38;24.10;99.90
7648;DHT22;3866;48.020;11.720;2023-07-31T15:47:05;24.10;99.90
7648;DHT22;3866;48.020;11.720;2023-07-31T15:49:32;24.00;99.90